Time;durP1;ratioP1;P1;durP2;ratioP2;P2;SDS_P1;SDS_P2;PMS_P1;PMS_P2;Temp;Humidity;BMP_temperature;BMP_pressure;BME280_temperature;BME280_humidity;BME280_pressure;Samples;Min_cycle;Max_cycle;Signal;HPM_P1;HPM_P2
2022/03/24 00:00:30;;;;;;;;;53.00;41.50;;;;;13.08;36.48;102113.22;5060251;28;45296;-79
2022/03/24 00:02:55;;;;;;;;;53.50;44.25;;;;;13.20;36.27;102141.69;5060255;28;45382;-85
2022/03/24 00:05:21;;;;;;;;;53.00;43.00;;;;;13.15;35.78;102125.72;5059287;28;45589;-85
2022/03/24 00:07:47;;;;;;;;;54.75;42.25;;;;;13.15;36.27;102132.78;5059447;28;45548;-81
2022/03/24 00:10:13;;;;;;;;;56.75;44.00;;;;;13.15;36.10;102132.78;5058093;28;45454;-81
2022/03/24 00:12:39;;;;;;;;;53.50;42.25;;;;;13.13;36.51;102127.47;5059021;28;45332;-81
2022/03/24 00:15:06;;;;;;;;;49.25;39.50;;;;;13.11;36.11;102134.44;5058092;28;45655;-83
2022/03/24 00:17:32;;;;;;;;;56.00;44.50;;;;;12.97;36.79;102113.03;5058156;28;45236;-83
2022/03/24 00:19:58;;;;;;;;;50.25;42.50;;;;;12.98;36.60;102119.22;5058351;28;45674;-80
2022/03/24 00:22:24;;;;;;;;;44.25;39.25;;;;;12.99;35.94;102123.63;5059636;28;45287;-77
2022/03/24 00:24:50;;;;;;;;;49.50;41.50;;;;;12.98;36.24;102127.16;5059056;28;45933;-84
2022/03/24 00:27:16;;;;;;;;;44.75;37.25;;;;;12.96;36.31;102129.75;5060244;28;45481;-83
2022/03/24 00:29:42;;;;;;;;;54.00;44.00;;;;;12.94;35.92;102126.22;5068435;28;45316;-79
2022/03/24 00:32:08;;;;;;;;;51.25;41.00;;;;;12.86;35.88;102119.88;5064647;28;45319;-84
2022/03/24 00:34:35;;;;;;;;;52.00;40.00;;;;;12.65;36.00;102083.28;5059963;28;46028;-87
2022/03/24 00:37:02;;;;;;;;;53.50;42.75;;;;;12.85;35.92;102120.72;5059997;28;45383;-86
2022/03/24 00:39:33;;;;;;;;;59.25;43.25;;;;;12.76;35.85;102109.97;5058227;28;45234;-85
2022/03/24 00:42:02;;;;;;;;;51.25;43.50;;;;;12.76;36.19;102113.50;5056468;28;45280;-81
2022/03/24 00:44:28;;;;;;;;;51.00;42.25;;;;;12.73;35.84;102118.69;5058138;28;45674;-81
2022/03/24 00:46:55;;;;;;;;;36.00;30.00;;;;;12.52;35.74;102090.06;5058736;28;45303;-84
2022/03/24 00:49:21;;;;;;;;;49.25;39.25;;;;;12.69;35.41;102115.97;5059798;28;45451;-79
2022/03/24 00:51:48;;;;;;;;;47.00;41.00;;;;;12.67;35.73;102118.59;5063355;28;45374;-82
2022/03/24 00:54:14;;;;;;;;;52.50;43.00;;;;;12.66;36.33;102113.28;5060692;28;45258;-82
2022/03/24 00:56:39;;;;;;;;;52.25;38.75;;;;;12.64;35.49;102118.50;5059025;28;45359;-81
2022/03/24 00:59:05;;;;;;;;;59.75;46.25;;;;;12.54;36.24;102100.69;5059225;28;45163;-85
2022/03/24 01:01:30;;;;;;;;;63.25;45.75;;;;;12.56;35.82;102101.59;5057939;28;45242;-85
2022/03/24 01:03:56;;;;;;;;;55.75;44.75;;;;;12.54;36.52;102114.78;5074280;27;46381;-79
2022/03/24 01:06:25;;;;;;;;;60.00;47.25;;;;;12.45;36.25;102095.19;5069170;28;45181;-83
2022/03/24 01:08:50;;;;;;;;;58.00;42.75;;;;;12.47;36.09;102107.59;5057211;28;45362;-80
2022/03/24 01:11:17;;;;;;;;;49.50;42.75;;;;;12.44;36.38;102114.56;5057505;28;45417;-80
2022/03/24 01:13:43;;;;;;;;;56.50;43.75;;;;;12.40;36.76;102097.75;5058250;28;46571;-84
2022/03/24 01:16:09;;;;;;;;;56.75;45.50;;;;;12.36;36.93;102100.28;5058094;28;45302;-85
2022/03/24 01:18:37;;;;;;;;;49.00;41.75;;;;;12.06;36.33;102058.22;5056344;28;45440;-81
2022/03/24 01:21:05;;;;;;;;;59.00;46.75;;;;;12.21;36.27;102088.53;5058178;28;45433;-86
2022/03/24 01:23:32;;;;;;;;;51.25;41.75;;;;;12.17;36.82;102084.03;5057259;28;45400;-80
2022/03/24 01:26:05;;;;;;;;;55.00;44.50;;;;;12.22;36.36;102098.25;5057846;28;45407;-81
2022/03/24 01:28:30;;;;;;;;;51.25;41.00;;;;;12.24;36.83;102109.72;5057142;28;45471;-81
2022/03/24 01:30:56;;;;;;;;;47.50;38.50;;;;;12.21;36.70;102104.38;5057924;28;45475;-85
2022/03/24 01:33:22;;;;;;;;;53.50;44.00;;;;;11.99;36.84;102063.38;5055843;28;46533;-83
2022/03/24 01:35:48;;;;;;;;;54.50;44.50;;;;;12.12;36.47;102101.53;5058389;28;45420;-81
2022/03/24 01:38:16;;;;;;;;;52.50;43.25;;;;;12.15;36.65;102108.63;5059328;28;45327;-83
2022/03/24 01:40:42;;;;;;;;;54.25;41.25;;;;;12.09;36.48;102093.50;5067904;28;45496;-79
2022/03/24 01:43:08;;;;;;;;;55.25;45.25;;;;;12.13;36.76;102099.78;5068244;28;45504;-84
2022/03/24 01:45:34;;;;;;;;;51.75;42.50;;;;;11.79;36.95;102038.22;5058484;28;45251;-85
2022/03/24 01:48:00;;;;;;;;;41.00;35.75;;;;;12.01;37.62;102067.81;5058065;28;45332;-85
2022/03/24 01:50:25;;;;;;;;;52.00;42.25;;;;;12.10;37.22;102091.75;5057310;28;45354;-85
2022/03/24 01:52:51;;;;;;;;;57.00;44.50;;;;;11.95;36.88;102066.81;5063846;28;47018;-86
2022/03/24 01:55:16;;;;;;;;;54.25;41.25;;;;;11.97;37.35;102083.56;5057162;28;45322;-86
2022/03/24 01:57:44;;;;;;;;;50.00;41.75;;;;;12.01;37.06;102081.03;5057930;28;45393;-81
2022/03/24 02:00:12;;;;;;;;;51.50;41.50;;;;;11.98;37.21;102081.81;5057272;28;45353;-80
2022/03/24 02:02:41;;;;;;;;;35.00;23.75;;;;;11.98;37.18;102084.47;5058550;28;46611;-80
2022/03/24 02:05:07;;;;;;;;;47.75;40.00;;;;;11.96;37.86;102081.78;5057541;28;45531;-80
2022/03/24 02:07:34;;;;;;;;;51.75;40.50;;;;;11.76;37.90;102047.84;5058181;28;45405;-81
2022/03/24 02:10:00;;;;;;;;;55.25;43.00;;;;;11.92;37.71;102074.66;5059162;28;45416;-81
2022/03/24 02:12:26;;;;;;;;;42.50;37.25;;;;;11.67;37.59;102028.28;5057304;28;46031;-79
2022/03/24 02:14:51;;;;;;;;;51.00;42.75;;;;;11.83;37.11;102068.28;5058443;28;45227;-81
2022/03/24 02:17:20;;;;;;;;;51.00;43.50;;;;;11.76;38.19;102061.91;5070031;28;45231;-82
2022/03/24 02:19:45;;;;;;;;;52.50;38.75;;;;;11.84;37.69;102070.94;5065294;28;45551;-86
2022/03/24 02:22:17;;;;;;;;;47.25;38.50;;;;;11.78;38.17;102075.16;5059612;28;45501;-87
2022/03/24 02:24:45;;;;;;;;;40.75;38.50;;;;;11.79;38.82;102080.47;5061288;28;45520;-87
2022/03/24 02:27:11;;;;;;;;;56.25;44.00;;;;;11.71;38.66;102082.91;5063131;28;45500;-85
2022/03/24 02:29:37;;;;;;;;;48.25;40.25;;;;;11.58;39.16;102049.16;5063499;28;45311;-84
2022/03/24 02:32:07;;;;;;;;;23.00;20.75;;;;;11.67;39.29;102073.16;5059960;28;46538;-84
2022/03/24 02:34:40;;;;;;;;;49.75;41.50;;;;;11.57;39.33;102057.06;5060784;28;45378;-87
2022/03/24 02:37:08;;;;;;;;;51.75;39.75;;;;;11.70;39.53;102075.84;5063106;28;45205;-87
2022/03/24 02:39:39;;;;;;;;;46.50;37.75;;;;;11.71;38.87;102084.66;5063529;28;45400;-85
2022/03/24 02:42:06;;;;;;;;;45.50;38.00;;;;;11.67;39.08;102075.78;5063617;28;46016;-84
2022/03/24 02:44:32;;;;;;;;;43.00;35.50;;;;;11.59;39.54;102055.34;5061704;28;45176;-82
2022/03/24 02:47:00;;;;;;;;;52.00;42.50;;;;;11.63;38.98;102081.88;5063059;28;45237;-82
2022/03/24 02:49:30;;;;;;;;;44.50;36.75;;;;;11.60;39.75;102083.50;5060533;28;45561;-81
2022/03/24 02:51:58;;;;;;;;;44.50;38.25;;;;;11.55;39.74;102071.97;5067940;28;45946;-80
2022/03/24 02:54:25;;;;;;;;;47.50;40.00;;;;;11.57;39.59;102079.06;5065414;28;45369;-81
2022/03/24 02:56:50;;;;;;;;;51.50;41.25;;;;;11.33;40.16;102042.38;5060642;28;45416;-82
2022/03/24 02:59:16;;;;;;;;;52.00;40.50;;;;;11.49;39.51;102077.97;5060530;28;45506;-85
2022/03/24 03:01:52;;;;;;;;;45.00;40.25;;;;;11.46;40.20;102077.03;5059916;28;46164;-80
2022/03/24 03:04:18;;;;;;;;;47.75;39.25;;;;;11.32;40.14;102050.28;5060959;28;45428;-82
2022/03/24 03:06:43;;;;;;;;;52.00;41.00;;;;;11.42;40.14;102076.03;5061280;28;45334;-82
2022/03/24 03:09:08;;;;;;;;;42.50;37.50;;;;;11.21;40.11;102039.44;5060720;28;45570;-83
2022/03/24 03:11:34;;;;;;;;;53.75;42.00;;;;;11.29;39.83;102059.00;5058794;28;45850;-85
2022/03/24 03:14:01;;;;;;;;;49.50;41.25;;;;;11.34;40.12;102075.81;5058301;28;45410;-81
2022/03/24 03:16:27;;;;;;;;;49.75;41.50;;;;;11.34;39.76;102077.56;5058392;28;45219;-85
2022/03/24 03:18:53;;;;;;;;;47.25;38.25;;;;;11.33;39.85;102081.97;5060708;28;45290;-85
2022/03/24 03:21:19;;;;;;;;;44.25;37.25;;;;;11.24;40.48;102072.91;5060515;28;45538;-81
2022/03/24 03:23:45;;;;;;;;;47.75;39.50;;;;;11.27;41.09;102079.19;5059096;28;45522;-82
2022/03/24 03:26:12;;;;;;;;;29.00;22.00;;;;;10.85;42.23;102016.53;5060003;28;45371;-83
2022/03/24 03:28:38;;;;;;;;;52.50;41.00;;;;;11.17;41.90;102078.88;5074459;28;45314;-77
2022/03/24 03:31:05;;;;;;;;;49.25;42.00;;;;;11.13;42.88;102088.47;5060129;28;45668;-84
2022/03/24 03:33:33;;;;;;;;;57.00;41.25;;;;;11.05;42.63;102085.63;5059187;28;45453;-82
2022/03/24 03:35:59;;;;;;;;;52.50;41.75;;;;;11.00;43.70;102079.34;5060330;28;45434;-87
2022/03/24 03:38:26;;;;;;;;;51.75;39.75;;;;;10.96;43.79;102084.47;5060296;28;45380;-86
2022/03/24 03:40:53;;;;;;;;;42.25;35.25;;;;;10.94;43.44;102089.72;5058757;28;45453;-82
2022/03/24 03:43:19;;;;;;;;;54.00;42.50;;;;;10.81;43.30;102070.03;5058630;28;45543;-83
2022/03/24 03:45:44;;;;;;;;;47.00;41.00;;;;;10.86;43.47;102080.69;5058483;28;45385;-85
2022/03/24 03:48:11;;;;;;;;;41.00;36.75;;;;;10.83;43.78;102078.88;5059333;28;45448;-87
2022/03/24 03:50:37;;;;;;;;;51.25;42.00;;;;;10.81;43.37;102082.31;5059098;28;45269;-88
2022/03/24 03:53:03;;;;;;;;;40.75;37.50;;;;;10.75;44.04;102068.97;5058263;28;45411;-87
2022/03/24 03:55:29;;;;;;;;;49.00;39.75;;;;;10.75;44.69;102072.50;5059452;28;45239;-84
2022/03/24 03:57:55;;;;;;;;;52.25;41.75;;;;;10.74;44.02;102077.72;5059753;28;45341;-86
2022/03/24 04:03:05;;;;;;;;;46.25;37.50;;;;;10.67;43.89;102074.00;5060974;28;45345;-76
2022/03/24 04:05:31;;;;;;;;;50.50;39.50;;;;;10.61;43.52;102073.88;5072800;28;45322;-87
2022/03/24 04:07:58;;;;;;;;;56.75;42.25;;;;;10.61;43.69;102083.47;5060192;28;45425;-83
2022/03/24 04:10:26;;;;;;;;;53.25;42.25;;;;;10.52;42.69;102065.69;5062550;28;45491;-83
2022/03/24 04:12:51;;;;;;;;;50.00;40.25;;;;;10.52;45.22;102079.75;5060814;28;45426;-85
2022/03/24 04:15:17;;;;;;;;;49.50;41.00;;;;;10.35;44.63;102057.28;5061927;28;45341;-88
2022/03/24 04:17:42;;;;;;;;;47.00;39.00;;;;;10.40;45.21;102070.59;5062944;28;45271;-88
2022/03/24 04:20:09;;;;;;;;;48.00;39.00;;;;;10.40;45.47;102089.03;5064124;28;45219;-84
2022/03/24 04:22:35;;;;;;;;;59.00;42.75;;;;;10.39;45.55;102080.22;5062301;28;45480;-86
2022/03/24 04:25:01;;;;;;;;;55.50;41.00;;;;;10.23;45.17;102056.91;5060197;28;45528;-85
2022/03/24 04:27:26;;;;;;;;;44.50;40.00;;;;;10.30;44.42;102077.31;5060775;28;45473;-88
2022/03/24 04:29:52;;;;;;;;;53.25;41.50;;;;;10.34;45.11;102079.22;5060984;28;45318;-84
2022/03/24 04:32:18;;;;;;;;;44.00;39.25;;;;;10.32;44.02;102078.25;5058776;28;45841;-83
2022/03/24 04:34:44;;;;;;;;;44.75;40.00;;;;;10.27;45.08;102070.22;5062006;28;45290;-84
2022/03/24 04:37:09;;;;;;;;;40.00;35.00;;;;;10.27;44.95;102072.88;5062816;28;45207;-88
2022/03/24 04:39:34;;;;;;;;;45.50;40.50;;;;;10.32;44.80;102075.63;5072870;28;45346;-79
2022/03/24 04:42:00;;;;;;;;;52.75;42.50;;;;;10.26;43.71;102068.44;5066695;28;45446;-86
2022/03/24 04:44:25;;;;;;;;;45.50;40.75;;;;;10.30;43.29;102079.94;5064192;28;45165;-84
2022/03/24 04:46:51;;;;;;;;;50.00;42.25;;;;;10.29;44.80;102075.53;5066257;28;45301;-83
2022/03/24 04:49:17;;;;;;;;;47.75;41.25;;;;;10.23;44.66;102076.22;5063675;28;45454;-88
2022/03/24 04:51:43;;;;;;;;;53.25;43.25;;;;;10.09;44.88;102056.47;5076332;28;45128;-79
2022/03/24 04:54:08;;;;;;;;;48.25;39.25;;;;;10.22;45.56;102077.09;5076821;28;46941;-78
2022/03/24 04:56:34;;;;;;;;;49.75;39.75;;;;;10.26;44.70;102083.34;5079324;28;44827;-77
2022/03/24 04:58:59;;;;;;;;;49.50;40.50;;;;;10.11;44.82;102051.25;5077092;28;46309;-75
2022/03/24 05:01:25;;;;;;;;;46.50;41.00;;;;;10.22;44.95;102069.19;5071123;28;44838;-86
2022/03/24 05:03:50;;;;;;;;;51.00;41.25;;;;;10.23;44.74;102078.88;5065603;28;45618;-85
2022/03/24 05:06:16;;;;;;;;;47.50;41.00;;;;;10.23;44.58;102075.34;5066428;28;45559;-86
2022/03/24 05:08:41;;;;;;;;;48.75;43.25;;;;;10.22;44.49;102065.66;5064587;28;47977;-80
2022/03/24 05:11:07;;;;;;;;;49.00;40.00;;;;;10.20;45.60;102072.59;5063715;28;45421;-82
2022/03/24 05:13:32;;;;;;;;;54.00;42.00;;;;;10.19;45.69;102070.81;5059850;28;45489;-81
2022/03/24 05:15:58;;;;;;;;;51.75;41.00;;;;;10.18;46.19;102077.81;5063867;28;45346;-80
2022/03/24 05:18:24;;;;;;;;;52.75;42.75;;;;;10.15;46.13;102082.09;5059075;28;46195;-79
2022/03/24 05:20:50;;;;;;;;;54.75;42.00;;;;;9.97;45.87;102053.47;5058465;28;45311;-85
2022/03/24 05:23:16;;;;;;;;;52.25;42.50;;;;;10.03;46.66;102074.69;5058280;28;45239;-79
2022/03/24 05:25:43;;;;;;;;;49.75;42.00;;;;;10.05;46.90;102074.75;5057980;28;45580;-82
2022/03/24 05:28:09;;;;;;;;;49.00;42.00;;;;;10.06;45.70;102084.47;5052441;28;46133;-79
2022/03/24 05:30:36;;;;;;;;;49.25;39.75;;;;;10.04;45.46;102089.66;5057304;28;45334;-84
2022/03/24 05:33:02;;;;;;;;;53.50;42.50;;;;;9.65;45.54;102023.50;5057496;28;45391;-86
2022/03/24 05:35:29;;;;;;;;;47.75;41.25;;;;;10.00;45.89;102080.78;5058452;28;45318;-85
2022/03/24 05:37:55;;;;;;;;;52.50;43.00;;;;;9.98;45.76;102081.59;5056637;28;47147;-88
2022/03/24 05:40:21;;;;;;;;;45.50;40.00;;;;;10.03;45.65;102090.50;5058013;28;45236;-84
2022/03/24 05:42:47;;;;;;;;;49.00;41.50;;;;;10.04;45.60;102079.13;5056994;28;45457;-89
2022/03/24 05:45:14;;;;;;;;;49.50;40.75;;;;;10.06;44.80;102092.34;5057961;28;45585;-86
2022/03/24 05:47:42;;;;;;;;;53.75;42.25;;;;;10.08;44.69;102074.88;5058121;28;46038;-86
2022/03/24 05:50:08;;;;;;;;;53.25;43.00;;;;;10.03;44.85;102071.19;5065517;28;45342;-80
2022/03/24 05:52:34;;;;;;;;;41.00;37.50;;;;;9.92;45.88;102052.41;5071208;28;45318;-81
2022/03/24 05:54:59;;;;;;;;;52.75;41.25;;;;;10.05;46.07;102087.91;5056789;28;45469;-85
2022/03/24 05:57:24;;;;;;;;;57.75;41.00;;;;;10.02;45.81;102082.56;5057034;28;45507;-85
2022/03/24 05:59:50;;;;;;;;;56.75;44.50;;;;;10.07;45.52;102089.75;5058164;28;45223;-83
2022/03/24 06:02:15;;;;;;;;;47.75;38.25;;;;;9.97;45.82;102072.78;5057599;28;45216;-83
2022/03/24 06:04:43;;;;;;;;;53.50;38.25;;;;;10.11;45.98;102093.38;5057979;28;45442;-86
2022/03/24 06:07:11;;;;;;;;;48.00;39.00;;;;;10.04;45.62;102079.13;5057704;28;46068;-82
2022/03/24 06:09:37;;;;;;;;;57.25;46.25;;;;;10.12;46.08;102082.00;5058607;28;45310;-85
2022/03/24 06:12:03;;;;;;;;;49.25;42.00;;;;;10.18;46.18;102098.00;5058666;28;45315;-85
2022/03/24 06:14:28;;;;;;;;;48.75;42.00;;;;;10.13;45.99;102087.31;5059441;28;45428;-86
2022/03/24 06:16:53;;;;;;;;;53.00;43.25;;;;;10.21;46.34;102098.97;5060433;28;46439;-88
2022/03/24 06:19:19;;;;;;;;;52.50;42.25;;;;;10.24;46.48;102095.59;5059844;28;45236;-83
2022/03/24 06:21:44;;;;;;;;;50.25;41.75;;;;;10.08;45.75;102059.06;5058859;28;45239;-83
2022/03/24 06:24:10;;;;;;;;;48.50;42.25;;;;;10.31;45.27;102100.19;5059036;28;45409;-81
2022/03/24 06:26:37;;;;;;;;;54.00;39.25;;;;;10.24;44.46;102071.88;5065802;28;45212;-77
2022/03/24 06:29:03;;;;;;;;;57.25;43.25;;;;;10.37;43.97;102081.03;5059443;28;45488;-83
2022/03/24 06:31:30;;;;;;;;;48.75;41.25;;;;;10.16;43.21;102039.13;5055918;28;45321;-81
2022/03/24 06:33:56;;;;;;;;;53.33;45.00;;;;;10.59;44.22;102101.00;5056775;28;45431;-82
2022/03/24 06:36:21;;;;;;;;;50.50;40.00;;;;;10.63;43.28;102101.16;5048474;28;45555;-83
2022/03/24 06:38:47;;;;;;;;;60.00;45.25;;;;;10.65;43.56;102088.00;5055262;28;45326;-84
2022/03/24 06:41:14;;;;;;;;;50.25;39.75;;;;;10.58;42.93;102073.75;5056287;28;45493;-83
2022/03/24 06:43:40;;;;;;;;;56.25;43.00;;;;;10.81;43.09;102098.16;5052744;28;45509;-85
2022/03/24 06:46:06;;;;;;;;;52.00;42.75;;;;;10.86;43.05;102093.88;5055484;28;45445;-85
2022/03/24 06:48:32;;;;;;;;;54.25;43.50;;;;;10.91;42.94;102099.28;5051110;28;45446;-84
2022/03/24 06:50:58;;;;;;;;;55.75;41.00;;;;;10.74;42.46;102064.56;5055692;28;45664;-84
2022/03/24 06:53:27;;;;;;;;;54.50;43.75;;;;;11.02;42.14;102105.75;5056525;28;45426;-85
2022/03/24 06:55:52;;;;;;;;;54.00;44.25;;;;;11.08;42.59;102100.66;5055475;28;47543;-82
2022/03/24 06:58:17;;;;;;;;;53.00;41.50;;;;;10.95;42.46;102077.41;5060358;28;45231;-86
2022/03/24 07:00:43;;;;;;;;;57.75;43.50;;;;;11.18;41.94;102110.59;5066565;28;45432;-82
2022/03/24 07:03:10;;;;;;;;;57.50;45.50;;;;;11.13;41.59;102097.25;5077532;28;45306;-83
2022/03/24 07:05:37;;;;;;;;;56.75;45.75;;;;;11.26;41.67;102108.13;5072883;28;45555;-82
2022/03/24 07:08:04;;;;;;;;;53.00;43.75;;;;;11.21;41.30;102093.94;5070931;28;45430;-86
2022/03/24 07:10:30;;;;;;;;;59.50;46.75;;;;;11.37;42.05;102110.22;5072269;28;45527;-84
2022/03/24 07:12:56;;;;;;;;;48.00;40.75;;;;;11.24;42.00;102072.91;5067995;28;45376;-87
2022/03/24 07:15:23;;;;;;;;;51.25;43.00;;;;;11.47;41.92;102111.34;5067304;28;46520;-86
2022/03/24 07:17:48;;;;;;;;;58.25;45.75;;;;;11.55;41.84;102122.13;5063678;28;45315;-85
2022/03/24 07:20:14;;;;;;;;;54.50;43.75;;;;;11.50;41.65;102089.41;5062943;28;45378;-86
2022/03/24 07:22:39;;;;;;;;;52.50;44.00;;;;;11.36;41.38;102068.88;5061238;28;45311;-83
2022/03/24 07:25:07;;;;;;;;;58.00;46.25;;;;;11.73;40.93;102121.69;5060467;28;45440;-88
2022/03/24 07:27:33;;;;;;;;;51.50;41.75;;;;;11.64;40.80;102094.19;5070018;28;45228;-88
2022/03/24 07:29:58;;;;;;;;;58.25;46.75;;;;;11.68;40.83;102084.59;5062305;28;45467;-83
2022/03/24 07:32:24;;;;;;;;;56.50;44.25;;;;;11.91;40.52;102123.06;5066829;28;45422;-85
2022/03/24 07:34:50;;;;;;;;;60.00;42.25;;;;;11.87;40.39;102101.81;5063150;28;45482;-86
2022/03/24 07:37:15;;;;;;;;;52.50;43.75;;;;;12.02;40.97;102115.38;5068123;28;45427;-85
2022/03/24 07:39:41;;;;;;;;;53.50;46.25;;;;;12.01;40.51;102110.06;5069360;28;45889;-85
2022/03/24 07:42:07;;;;;;;;;55.25;43.50;;;;;11.65;40.13;102039.66;5067858;28;45358;-84
2022/03/24 07:44:33;;;;;;;;;59.00;45.75;;;;;11.88;39.71;102066.63;5061605;28;46370;-85
2022/03/24 07:46:58;;;;;;;;;56.00;43.75;;;;;12.36;40.47;102124.94;5064264;28;45339;-84
2022/03/24 07:49:24;;;;;;;;;55.75;42.00;;;;;11.79;39.86;102016.22;5064603;28;45216;-85
2022/03/24 07:51:49;;;;;;;;;57.00;42.00;;;;;12.32;39.66;102101.09;5061685;28;45329;-87
2022/03/24 07:54:15;;;;;;;;;56.25;44.25;;;;;12.59;39.43;102132.50;5062832;28;45335;-84
2022/03/24 07:56:40;;;;;;;;;52.50;41.50;;;;;12.67;39.72;102128.28;5061991;28;45450;-85
2022/03/24 07:59:06;;;;;;;;;55.50;41.75;;;;;12.73;39.17;102136.31;5062410;28;45237;-88
2022/03/24 08:01:36;;;;;;;;;54.50;41.75;;;;;12.81;39.07;102138.28;5061315;28;45216;-84
2022/03/24 08:04:04;;;;;;;;;50.00;41.00;;;;;12.91;39.15;102141.09;5059480;28;48502;-84
2022/03/24 08:06:30;;;;;;;;;60.50;46.50;;;;;12.54;38.79;102061.91;5053170;28;45557;-83
2022/03/24 08:08:56;;;;;;;;;52.00;41.00;;;;;13.03;39.04;102141.38;5057939;28;45286;-83
2022/03/24 08:11:22;;;;;;;;;56.00;45.00;;;;;12.93;38.86;102102.34;5057557;28;45244;-84
2022/03/24 08:13:52;;;;;;;;;59.75;45.75;;;;;13.20;38.55;102147.88;5060678;28;45866;-81
2022/03/24 08:16:17;;;;;;;;;54.00;43.50;;;;;12.86;38.80;102079.31;5056157;28;45531;-82
2022/03/24 08:18:43;;;;;;;;;56.50;44.75;;;;;12.66;38.29;102033.97;5055288;28;45445;-82
2022/03/24 08:21:11;;;;;;;;;57.00;45.25;;;;;13.13;38.88;102098.34;5052927;28;45526;-80
2022/03/24 08:23:36;;;;;;;;;60.50;47.50;;;;;13.30;38.55;102119.84;5056122;28;46566;-85
2022/03/24 08:26:02;;;;;;;;;64.50;47.00;;;;;13.43;38.25;102127.16;5057909;28;45571;-86
2022/03/24 08:28:27;;;;;;;;;55.75;43.75;;;;;13.47;37.81;102102.50;5057352;28;45373;-80
2022/03/24 08:30:53;;;;;;;;;57.00;46.00;;;;;13.55;37.70;102106.19;5056078;28;45438;-80
2022/03/24 08:33:18;;;;;;;;;58.25;47.50;;;;;13.82;37.84;102131.34;5056514;28;46546;-79
2022/03/24 08:35:44;;;;;;;;;61.75;46.75;;;;;13.98;36.84;102143.97;5054997;28;45523;-81
2022/03/24 08:38:10;;;;;;;;;59.00;49.00;;;;;14.03;37.06;102142.28;5045032;28;45817;-81
2022/03/24 08:40:36;;;;;;;;;54.75;45.00;;;;;14.11;36.85;102143.28;5054473;28;45405;-80
2022/03/24 08:43:04;;;;;;;;;54.00;43.50;;;;;14.25;37.09;102143.53;5056923;28;46177;-81
2022/03/24 08:45:30;;;;;;;;;54.75;46.00;;;;;14.23;36.93;102121.38;5056339;28;45467;-81
2022/03/24 08:47:57;;;;;;;;;55.75;44.50;;;;;14.18;36.57;102086.88;5057699;28;45326;-81
2022/03/24 08:50:23;;;;;;;;;55.50;42.50;;;;;14.72;36.16;102143.31;5060374;28;45141;-81
2022/03/24 08:52:49;;;;;;;;;57.75;45.75;;;;;15.13;35.41;102145.56;5056201;28;45960;-80
2022/03/24 08:55:16;;;;;;;;;63.00;49.00;;;;;15.80;34.81;102152.44;5072731;28;45231;-82
2022/03/24 08:57:43;;;;;;;;;57.75;45.25;;;;;16.61;33.29;102142.38;5071627;28;45375;-83
2022/03/24 09:00:13;;;;;;;;;55.25;44.75;;;;;18.40;30.93;102059.94;5057115;28;45430;-83
2022/03/24 09:02:46;;;;;;;;;56.25;44.25;;;;;23.25;24.72;102093.63;5055415;28;46331;-80
2022/03/24 09:05:13;;;;;;;;;59.50;46.00;;;;;26.81;21.00;102098.84;5056211;28;45334;-80
2022/03/24 09:07:40;;;;;;;;;56.25;46.00;;;;;29.95;18.35;102148.03;5053163;28;45473;-80
2022/03/24 09:10:07;;;;;;;;;51.25;42.75;;;;;31.98;15.52;102131.28;5055456;28;45435;-80
2022/03/24 09:12:35;;;;;;;;;52.50;42.25;;;;;33.57;14.94;102113.84;5054719;28;45536;-81
2022/03/24 09:15:00;;;;;;;;;56.33;44.00;;;;;35.05;13.49;102116.19;5056138;28;45453;-80
2022/03/24 09:17:26;;;;;;;;;53.00;44.00;;;;;36.57;13.07;102144.66;5055914;28;45545;-81
2022/03/24 09:19:52;;;;;;;;;51.67;42.00;;;;;37.47;12.46;102145.50;5055427;28;45234;-81
2022/03/24 09:22:17;;;;;;;;;53.00;44.00;;;;;38.45;11.06;102137.94;5056560;28;46181;-81
2022/03/24 09:24:43;;;;;;;;;49.67;41.33;;;;;39.32;11.03;102151.22;5057101;28;45488;-81
2022/03/24 09:27:08;;;;;;;;;46.67;34.33;;;;;40.04;10.58;102138.97;5056901;28;45418;-81
2022/03/24 09:29:35;;;;;;;;;48.67;40.33;;;;;40.88;9.91;102150.13;5054720;28;45575;-80
2022/03/24 09:32:00;;;;;;;;;48.00;41.25;;;;;41.54;9.67;102138.81;5048432;28;47352;-83
2022/03/24 09:34:26;;;;;;;;;51.00;43.00;;;;;41.62;9.47;102138.03;5055663;28;45353;-82
2022/03/24 09:36:51;;;;;;;;;46.25;38.50;;;;;41.78;9.05;102125.22;5054411;28;45415;-81
2022/03/24 09:39:17;;;;;;;;;50.75;40.75;;;;;42.44;8.96;102148.78;5054352;28;45569;-83
2022/03/24 09:41:47;;;;;;;;;43.00;35.25;;;;;42.90;8.56;102138.31;5055689;28;45445;-82
2022/03/24 09:44:14;;;;;;;;;47.60;38.60;;;;;43.22;8.74;102145.94;5056152;28;45275;-81
2022/03/24 09:46:41;;;;;;;;;50.40;40.00;;;;;43.61;7.80;102148.97;5055243;28;45189;-82
2022/03/24 09:49:10;;;;;;;;;48.00;38.25;;;;;44.20;8.19;102148.84;5055724;28;45484;-83
2022/03/24 09:51:39;;;;;;;;;45.80;38.60;;;;;44.55;7.80;102133.72;5055247;28;47219;-82
2022/03/24 09:54:06;;;;;;;;;44.40;36.60;;;;;44.55;7.64;102133.72;5056076;28;45370;-83
2022/03/24 09:56:32;;;;;;;;;47.00;39.60;;;;;43.93;7.76;102125.97;5055415;28;45317;-82
2022/03/24 09:58:57;;;;;;;;;56.25;43.75;;;;;44.20;7.49;102121.06;5055794;28;45471;-82
2022/03/24 10:01:23;;;;;;;;;44.00;36.75;;;;;44.37;7.67;102128.34;5056786;28;45472;-83
2022/03/24 10:04:10;;;;;;;;;47.25;40.00;;;;;41.63;8.71;102107.44;5055376;28;45374;-81
2022/03/24 10:06:40;;;;;;;;;48.00;39.60;;;;;39.74;9.64;102120.66;5055254;28;45336;-82
2022/03/24 10:09:06;;;;;;;;;43.60;36.00;;;;;40.72;8.94;102112.06;5055092;28;45473;-84
2022/03/24 10:11:35;;;;;;;;;50.20;41.40;;;;;42.37;8.35;102107.03;5055361;28;45462;-81
2022/03/24 10:14:02;;;;;;;;;49.00;40.40;;;;;43.54;7.74;102122.94;5055129;28;45465;-82
2022/03/24 10:16:34;;;;;;;;;53.40;42.00;;;;;44.28;7.28;102124.72;5055813;28;45434;-82
2022/03/24 10:19:02;;;;;;;;;48.00;41.00;;;;;44.95;7.61;102113.22;5055593;28;45490;-82
2022/03/24 10:21:29;;;;;;;;;43.00;37.20;;;;;45.32;7.14;102118.06;5055474;28;45255;-80
2022/03/24 10:23:57;;;;;;;;;48.60;40.20;;;;;45.58;6.41;102091.81;5055517;28;45274;-81
2022/03/24 10:26:42;;;;;;;;;45.20;38.60;;;;;46.19;7.09;102115.84;5055471;28;45404;-80
2022/03/24 10:29:09;;;;;;;;;45.40;36.40;;;;;46.32;6.70;102123.53;5055559;28;46527;-79
2022/03/24 10:31:37;;;;;;;;;47.00;37.20;;;;;46.17;6.35;102086.44;5054782;28;46477;-81
2022/03/24 10:34:03;;;;;;;;;46.20;38.20;;;;;46.56;6.15;102119.66;5055475;28;45417;-82
2022/03/24 10:36:31;;;;;;;;;45.00;36.60;;;;;46.86;5.98;102118.56;5057140;28;45568;-82
2022/03/24 10:39:04;;;;;;;;;42.00;37.00;;;;;47.00;6.58;102108.44;5059018;28;45596;-82
2022/03/24 10:41:33;;;;;;;;;50.00;38.60;;;;;46.98;6.00;102112.50;5059366;28;46796;-83
2022/03/24 10:44:04;;;;;;;;;46.80;37.60;;;;;46.73;6.35;102101.66;5059601;28;45857;-82
2022/03/24 10:46:33;;;;;;;;;42.80;37.00;;;;;46.46;6.51;102089.25;5058887;28;45223;-82
2022/03/24 10:49:13;;;;;;;;;48.60;39.40;;;;;45.76;6.48;102086.81;5058721;28;45508;-81
2022/03/24 10:51:43;;;;;;;;;46.40;38.80;;;;;43.15;7.35;102078.28;5057503;28;45859;-82
2022/03/24 10:54:15;;;;;;;;;42.00;34.80;;;;;40.13;8.64;102094.78;5057559;28;45544;-82
2022/03/24 10:57:06;;;;;;;;;44.40;37.60;;;;;38.41;9.52;102094.28;5058203;28;45529;-84
2022/03/24 10:59:47;;;;;;;;;45.80;36.40;;;;;35.95;10.94;102091.03;5045618;28;45303;-82
2022/03/24 11:02:13;;;;;;;;;43.20;36.00;;;;;34.10;11.74;102084.69;5057811;28;47648;-83
2022/03/24 11:04:38;;;;;;;;;38.20;31.40;;;;;32.62;13.19;102086.41;5054125;28;45491;-82
2022/03/24 11:07:12;;;;;;;;;41.50;37.00;;;;;31.15;13.96;102051.69;5060286;28;45449;-82
2022/03/24 11:09:38;;;;;;;;;48.80;37.20;;;;;30.03;14.67;102045.25;5060474;28;45501;-83